Time;durP1;ratioP1;P1;durP2;ratioP2;P2;SDS_P1;SDS_P2;PMS_P1;PMS_P2;Temp;Humidity;BMP_temperature;BMP_pressure;BME280_temperature;BME280_humidity;BME280_pressure;Samples;Min_cycle;Max_cycle;Signal;HPM_P1;HPM_P2
2022/09/10 00:00:37;;;;;;;3.22;0.90;;;;;;;;;;5069222;28;20025;-73
2022/09/10 00:03:04;;;;;;;2.08;0.77;;;;;;;;;;5063296;28;20032;-74
2022/09/10 00:05:30;;;;;;;5.25;0.70;;;;;;;;;;5069082;28;20039;-74
2022/09/10 00:07:56;;;;;;;6.60;1.30;;;;;;;;;;5069606;28;20287;-73
2022/09/10 00:10:22;;;;;;;4.75;1.80;;;;;;;;;;5070454;28;20013;-74
2022/09/10 00:12:48;;;;;;;6.00;1.35;;;;;;;;;;5070373;28;20013;-73
2022/09/10 00:15:16;;;;;;;3.88;0.88;;;;;;;;;;5070715;28;20021;-74
2022/09/10 00:17:42;;;;;;;1.55;0.80;;;;;;;;;;5069765;28;20016;-72
2022/09/10 00:20:09;;;;;;;2.15;1.00;;;;;;;;;;5070396;28;20070;-73
2022/09/10 00:22:35;;;;;;;3.35;1.10;;;;;;;;;;5070517;28;20039;-73
2022/09/10 00:25:01;;;;;;;2.38;0.85;;;;;;;;;;5070637;28;20024;-73
2022/09/10 00:27:27;;;;;;;5.60;1.33;;;;;;;;;;5069382;28;20025;-73
2022/09/10 00:29:53;;;;;;;2.40;1.10;;;;;;;;;;5070209;28;20020;-73
2022/09/10 00:32:22;;;;;;;6.10;1.48;;;;;;;;;;5069197;28;20021;-73
2022/09/10 00:34:48;;;;;;;4.75;1.55;;;;;;;;;;5065775;28;20476;-73
2022/09/10 00:37:15;;;;;;;7.50;1.10;;;;;;;;;;5062141;28;20032;-74
2022/09/10 00:39:41;;;;;;;2.00;1.30;;;;;;;;;;5070628;28;20024;-73
2022/09/10 00:42:10;;;;;;;2.35;1.20;;;;;;;;;;5070106;28;20105;-73
2022/09/10 00:44:39;;;;;;;5.97;1.40;;;;;;;;;;5070007;28;20013;-74
2022/09/10 00:47:07;;;;;;;6.10;1.60;;;;;;;;;;5069786;28;20021;-73
2022/09/10 00:49:37;;;;;;;3.70;0.95;;;;;;;;;;5069566;28;20549;-73
2022/09/10 00:52:03;;;;;;;3.25;0.95;;;;;;;;;;5085627;22;20166;-76
2022/09/10 00:54:31;;;;;;;4.07;0.90;;;;;;;;;;5074335;28;20028;-75
2022/09/10 00:56:59;;;;;;;2.40;0.98;;;;;;;;;;5073413;28;20028;-75
2022/09/10 00:59:26;;;;;;;4.90;1.10;;;;;;;;;;5073072;28;20028;-76
2022/09/10 01:01:53;;;;;;;2.88;0.70;;;;;;;;;;5073715;28;20020;-74
2022/09/10 01:04:19;;;;;;;3.85;1.00;;;;;;;;;;5073688;28;20028;-74
2022/09/10 01:06:45;;;;;;;2.38;0.82;;;;;;;;;;5073927;28;20467;-76
2022/09/10 01:09:12;;;;;;;1.33;0.52;;;;;;;;;;5072961;28;20020;-76
2022/09/10 01:12:14;;;;;;;2.33;0.95;;;;;;;;;;5073758;28;20104;-77
2022/09/10 01:14:39;;;;;;;2.13;0.82;;;;;;;;;;4991804;28;20048;-76
2022/09/10 01:17:35;;;;;;;2.40;0.90;;;;;;;;;;5056517;28;20041;-75
2022/09/10 01:20:07;;;;;;;6.75;1.20;;;;;;;;;;4982523;28;20049;-75
2022/09/10 01:22:42;;;;;;;3.45;1.33;;;;;;;;;;5068387;28;20016;-75
2022/09/10 01:25:26;;;;;;;2.42;0.80;;;;;;;;;;5073351;28;20538;-75
2022/09/10 01:27:53;;;;;;;4.68;1.33;;;;;;;;;;5072458;28;20517;-73
2022/09/10 01:30:23;;;;;;;4.57;1.08;;;;;;;;;;5055123;28;20029;-74
2022/09/10 01:33:05;;;;;;;6.30;1.23;;;;;;;;;;5073062;28;20021;-74
2022/09/10 01:35:37;;;;;;;5.45;1.15;;;;;;;;;;5073203;28;20028;-75
2022/09/10 01:38:05;;;;;;;3.53;0.70;;;;;;;;;;5054284;28;20109;-76
2022/09/10 01:40:33;;;;;;;2.05;0.90;;;;;;;;;;5073153;28;20030;-75
2022/09/10 01:43:03;;;;;;;1.55;0.70;;;;;;;;;;5073046;28;20397;-76
2022/09/10 01:45:31;;;;;;;3.90;0.95;;;;;;;;;;5055186;28;20067;-74
2022/09/10 01:48:05;;;;;;;1.80;0.50;;;;;;;;;;5072137;28;20074;-73
2022/09/10 01:50:50;;;;;;;2.72;0.75;;;;;;;;;;5073184;28;20021;-72
2022/09/10 01:53:29;;;;;;;2.95;0.77;;;;;;;;;;5060218;28;20115;-74
2022/09/10 01:55:58;;;;;;;2.28;0.95;;;;;;;;;;5072953;28;20020;-75
2022/09/10 01:58:41;;;;;;;2.90;0.90;;;;;;;;;;5072449;28;20331;-75
2022/09/10 02:01:26;;;;;;;3.33;0.93;;;;;;;;;;5054898;28;20028;-75
2022/09/10 02:03:56;;;;;;;3.00;0.88;;;;;;;;;;5070871;28;20107;-73
2022/09/10 02:06:28;;;;;;;7.03;0.90;;;;;;;;;;5072375;28;20493;-74
2022/09/10 02:08:55;;;;;;;3.80;1.30;;;;;;;;;;5071814;28;20029;-75
2022/09/10 02:11:22;;;;;;;2.75;1.23;;;;;;;;;;5072392;28;20031;-75
2022/09/10 02:13:48;;;;;;;6.47;1.52;;;;;;;;;;5072616;28;20016;-75
2022/09/10 02:16:20;;;;;;;2.90;0.88;;;;;;;;;;5072545;28;20032;-75
2022/09/10 02:18:46;;;;;;;1.98;1.08;;;;;;;;;;5071643;28;20023;-72
2022/09/10 02:21:14;;;;;;;3.05;0.90;;;;;;;;;;5072431;28;20020;-76
2022/09/10 02:23:48;;;;;;;2.38;0.73;;;;;;;;;;5054841;28;20029;-75
2022/09/10 02:26:14;;;;;;;3.03;1.08;;;;;;;;;;5072092;28;20031;-74
2022/09/10 02:28:42;;;;;;;2.45;0.82;;;;;;;;;;5071770;28;20474;-74
2022/09/10 02:31:08;;;;;;;4.22;0.82;;;;;;;;;;5072201;28;20016;-74
2022/09/10 02:33:34;;;;;;;4.43;1.50;;;;;;;;;;5072308;28;20074;-74
2022/09/10 02:36:00;;;;;;;3.15;0.88;;;;;;;;;;5072257;28;20025;-75
2022/09/10 02:38:28;;;;;;;3.75;1.48;;;;;;;;;;5071348;28;20024;-73
2022/09/10 02:40:56;;;;;;;5.47;1.10;;;;;;;;;;5071505;28;20569;-73
2022/09/10 02:43:22;;;;;;;4.28;1.00;;;;;;;;;;5072176;28;20108;-75
2022/09/10 02:45:48;;;;;;;1.58;0.63;;;;;;;;;;5071899;28;20457;-75
2022/09/10 02:48:14;;;;;;;4.65;0.82;;;;;;;;;;5071143;28;20024;-72
2022/09/10 02:50:40;;;;;;;4.47;0.93;;;;;;;;;;5053460;28;20024;-73
2022/09/10 02:53:06;;;;;;;2.72;0.90;;;;;;;;;;5071685;28;20498;-74
2022/09/10 02:55:32;;;;;;;3.92;0.90;;;;;;;;;;5071600;28;20028;-73
2022/09/10 02:57:58;;;;;;;3.25;0.80;;;;;;;;;;5069401;28;20115;-75
2022/09/10 03:00:24;;;;;;;4.18;0.98;;;;;;;;;;5071533;28;20115;-76
2022/09/10 03:02:50;;;;;;;4.20;0.90;;;;;;;;;;5071526;28;20482;-74
2022/09/10 03:05:16;;;;;;;3.30;1.10;;;;;;;;;;5053478;28;20077;-72
2022/09/10 03:07:42;;;;;;;4.88;0.90;;;;;;;;;;5070542;28;20108;-74
2022/09/10 03:10:09;;;;;;;4.07;1.00;;;;;;;;;;5071504;28;20052;-75
2022/09/10 03:12:35;;;;;;;1.85;0.90;;;;;;;;;;5070462;28;20111;-74
2022/09/10 03:15:01;;;;;;;2.70;0.80;;;;;;;;;;5053717;28;20108;-75
2022/09/10 03:17:29;;;;;;;2.50;0.80;;;;;;;;;;5070642;28;20056;-81
2022/09/10 03:19:57;;;;;;;3.70;1.00;;;;;;;;;;5070722;28;20055;-76
2022/09/10 03:22:23;;;;;;;2.55;0.85;;;;;;;;;;5070875;28;20035;-76
2022/09/10 03:24:49;;;;;;;1.45;0.85;;;;;;;;;;5057264;28;20032;-71
2022/09/10 03:27:15;;;;;;;4.72;1.42;;;;;;;;;;5070690;28;20063;-75
2022/09/10 03:29:42;;;;;;;6.32;1.00;;;;;;;;;;5071020;28;20374;-74
2022/09/10 03:32:08;;;;;;;2.58;0.98;;;;;;;;;;5070985;28;20478;-74
2022/09/10 03:34:34;;;;;;;5.45;1.02;;;;;;;;;;5070787;28;20164;-75
2022/09/10 03:37:00;;;;;;;6.63;1.30;;;;;;;;;;5052658;28;20040;-72
2022/09/10 03:39:26;;;;;;;2.35;0.95;;;;;;;;;;5070364;28;20027;-74
2022/09/10 03:41:51;;;;;;;2.30;1.13;;;;;;;;;;5070848;28;20030;-75
2022/09/10 03:44:18;;;;;;;2.97;0.77;;;;;;;;;;5070934;28;20390;-75
2022/09/10 03:46:47;;;;;;;5.25;1.20;;;;;;;;;;5071041;28;20033;-74
2022/09/10 03:49:13;;;;;;;3.95;1.83;;;;;;;;;;5069955;28;20066;-75
2022/09/10 03:51:39;;;;;;;4.50;1.73;;;;;;;;;;5052869;28;20036;-73
2022/09/10 03:54:05;;;;;;;4.82;1.92;;;;;;;;;;5070640;28;20051;-74
2022/09/10 03:56:31;;;;;;;5.53;1.90;;;;;;;;;;5070919;28;20019;-74
2022/09/10 03:58:57;;;;;;;3.85;1.70;;;;;;;;;;5069615;28;20374;-74
2022/09/10 04:01:23;;;;;;;2.60;1.75;;;;;;;;;;5052680;28;20081;-76
2022/09/10 04:03:49;;;;;;;5.38;2.20;;;;;;;;;;5068712;28;20029;-76
2022/09/10 04:06:15;;;;;;;4.45;1.77;;;;;;;;;;5070972;28;20017;-75
2022/09/10 04:08:45;;;;;;;2.50;1.92;;;;;;;;;;5070293;28;20017;-76
2022/09/10 04:11:12;;;;;;;9.60;2.33;;;;;;;;;;5061198;28;20398;-73
2022/09/10 04:13:38;;;;;;;8.48;2.38;;;;;;;;;;5086823;28;20024;-76
2022/09/10 04:16:04;;;;;;;5.82;2.30;;;;;;;;;;5088735;28;20039;-76
2022/09/10 04:18:33;;;;;;;5.68;2.13;;;;;;;;;;5084504;28;20076;-75
2022/09/10 04:20:59;;;;;;;6.80;2.00;;;;;;;;;;5083675;28;20020;-75
2022/09/10 04:23:25;;;;;;;6.53;2.10;;;;;;;;;;5059765;28;20029;-74
2022/09/10 04:25:51;;;;;;;2.17;1.35;;;;;;;;;;5075143;28;20048;-76
2022/09/10 04:28:17;;;;;;;3.97;2.20;;;;;;;;;;5074922;28;20021;-76
2022/09/10 04:30:44;;;;;;;5.55;1.95;;;;;;;;;;5074484;28;20393;-74
2022/09/10 04:33:10;;;;;;;2.55;1.83;;;;;;;;;;5074806;28;20021;-75
2022/09/10 04:35:38;;;;;;;4.32;2.17;;;;;;;;;;5074450;28;20507;-74
2022/09/10 04:38:04;;;;;;;5.97;2.13;;;;;;;;;;5073555;28;20397;-75
2022/09/10 04:40:30;;;;;;;1.95;1.70;;;;;;;;;;5056300;28;20032;-75
2022/09/10 04:42:56;;;;;;;3.20;2.10;;;;;;;;;;5074221;28;20402;-73
2022/09/10 04:45:22;;;;;;;3.53;1.88;;;;;;;;;;5074838;28;20070;-75
2022/09/10 04:47:48;;;;;;;5.78;2.58;;;;;;;;;;5074381;28;20020;-74
2022/09/10 04:50:14;;;;;;;5.45;1.85;;;;;;;;;;5074937;28;20454;-73
2022/09/10 04:52:42;;;;;;;3.10;1.92;;;;;;;;;;5091535;28;20042;-76
2022/09/10 04:55:08;;;;;;;5.85;2.05;;;;;;;;;;5096163;28;20043;-75
2022/09/10 04:57:35;;;;;;;7.80;2.72;;;;;;;;;;5093546;28;20050;-75
2022/09/10 05:00:01;;;;;;;5.70;2.10;;;;;;;;;;5087199;28;20024;-73
2022/09/10 05:02:27;;;;;;;6.07;2.58;;;;;;;;;;5073919;28;20140;-76
2022/09/10 05:04:53;;;;;;;7.57;2.10;;;;;;;;;;5073568;28;20511;-75
2022/09/10 05:07:19;;;;;;;5.57;2.42;;;;;;;;;;5073187;28;20044;-72
2022/09/10 05:09:45;;;;;;;4.22;1.50;;;;;;;;;;5073711;28;20100;-76
2022/09/10 05:12:11;;;;;;;4.13;2.20;;;;;;;;;;5073476;28;20103;-75
2022/09/10 05:14:37;;;;;;;7.57;1.70;;;;;;;;;;5055505;28;20106;-76
2022/09/10 05:17:03;;;;;;;5.32;1.35;;;;;;;;;;5073424;28;20051;-77
2022/09/10 05:19:29;;;;;;;2.38;1.42;;;;;;;;;;5055026;28;20535;-75
2022/09/10 05:21:55;;;;;;;2.78;1.20;;;;;;;;;;5055686;28;20115;-75
2022/09/10 05:24:21;;;;;;;2.60;1.58;;;;;;;;;;5073378;28;20111;-77
2022/09/10 05:26:47;;;;;;;2.90;1.42;;;;;;;;;;5073460;28;20106;-75
2022/09/10 05:29:13;;;;;;;2.95;1.33;;;;;;;;;;5050761;28;20145;-75
2022/09/10 05:31:39;;;;;;;7.18;2.15;;;;;;;;;;5070685;28;20036;-76
2022/09/10 05:34:07;;;;;;;7.10;1.13;;;;;;;;;;5074088;28;20030;-75
2022/09/10 05:36:33;;;;;;;5.28;1.40;;;;;;;;;;5080515;28;20028;-76
2022/09/10 05:38:59;;;;;;;4.95;1.27;;;;;;;;;;5081104;28;20028;-76
2022/09/10 05:41:26;;;;;;;2.67;1.20;;;;;;;;;;5078554;28;20091;-75
2022/09/10 05:43:52;;;;;;;2.67;1.02;;;;;;;;;;5073003;28;20031;-76
2022/09/10 05:46:18;;;;;;;0.75;0.60;;;;;;;;;;5072721;28;20025;-75
2022/09/10 05:48:45;;;;;;;2.00;0.80;;;;;;;;;;5054202;28;20030;-75
2022/09/10 05:51:11;;;;;;;3.42;1.17;;;;;;;;;;5072805;28;20337;-75
2022/09/10 05:53:38;;;;;;;3.17;0.90;;;;;;;;;;5072998;28;20226;-76
2022/09/10 05:56:04;;;;;;;2.05;0.63;;;;;;;;;;5072793;28;20041;-75
2022/09/10 05:58:33;;;;;;;0.80;0.60;;;;;;;;;;5071844;28;20063;-76
2022/09/10 06:00:59;;;;;;;1.05;0.55;;;;;;;;;;5053952;28;20019;-75
2022/09/10 06:03:25;;;;;;;2.10;0.63;;;;;;;;;;5055095;28;20170;-74
2022/09/10 06:05:51;;;;;;;2.72;0.82;;;;;;;;;;5072916;28;20024;-76
2022/09/10 06:08:19;;;;;;;1.25;0.75;;;;;;;;;;5072063;28;20077;-76
2022/09/10 06:10:54;;;;;;;1.05;0.50;;;;;;;;;;5072431;28;20081;-75
2022/09/10 06:13:20;;;;;;;0.95;0.50;;;;;;;;;;5072414;28;20028;-76
2022/09/10 06:15:46;;;;;;;1.38;0.57;;;;;;;;;;5068998;28;20436;-75
2022/09/10 06:18:12;;;;;;;3.22;0.95;;;;;;;;;;5072080;28;20082;-76
2022/09/10 06:20:38;;;;;;;2.53;0.50;;;;;;;;;;5072473;28;20082;-74
2022/09/10 06:23:04;;;;;;;1.30;0.65;;;;;;;;;;5072784;28;20225;-76
2022/09/10 06:25:30;;;;;;;2.42;0.95;;;;;;;;;;5072164;28;20457;-76
2022/09/10 06:27:56;;;;;;;0.88;0.50;;;;;;;;;;5071133;28;20031;-74
2022/09/10 06:30:22;;;;;;;1.05;0.52;;;;;;;;;;5072112;28;20385;-75
2022/09/10 06:32:48;;;;;;;2.97;0.50;;;;;;;;;;5071618;28;20347;-75
2022/09/10 06:35:14;;;;;;;1.20;0.88;;;;;;;;;;5072170;28;20032;-74
2022/09/10 06:37:40;;;;;;;2.35;0.50;;;;;;;;;;5071173;28;20031;-71
2022/09/10 06:40:07;;;;;;;2.90;0.70;;;;;;;;;;5072101;28;20478;-75
2022/09/10 06:42:33;;;;;;;2.42;0.60;;;;;;;;;;5067082;28;20033;-75
2022/09/10 06:44:59;;;;;;;1.77;0.63;;;;;;;;;;5082265;28;20052;-75
2022/09/10 06:47:25;;;;;;;1.58;0.47;;;;;;;;;;5068547;28;20032;-73
2022/09/10 06:49:51;;;;;;;1.73;0.47;;;;;;;;;;5071759;28;20386;-75
2022/09/10 06:52:17;;;;;;;2.83;0.60;;;;;;;;;;5086602;22;20060;-75
2022/09/10 06:54:43;;;;;;;1.35;0.50;;;;;;;;;;5064652;28;20028;-74
2022/09/10 06:57:10;;;;;;;2.30;0.75;;;;;;;;;;5052403;28;20029;-74
2022/09/10 06:59:37;;;;;;;2.05;0.70;;;;;;;;;;5060592;28;20056;-75
2022/09/10 07:02:03;;;;;;;3.85;0.95;;;;;;;;;;5055432;28;20017;-75
2022/09/10 07:04:29;;;;;;;3.03;0.75;;;;;;;;;;5062823;28;20033;-75
2022/09/10 07:06:57;;;;;;;1.55;0.68;;;;;;;;;;5056439;28;20025;-74
2022/09/10 07:09:23;;;;;;;1.17;0.60;;;;;;;;;;5053241;28;20047;-74
2022/09/10 07:11:49;;;;;;;0.90;0.60;;;;;;;;;;5062044;28;20060;-75
2022/09/10 07:14:16;;;;;;;1.90;0.50;;;;;;;;;;5049861;28;20056;-75
2022/09/10 07:16:43;;;;;;;4.47;0.75;;;;;;;;;;5050665;28;20009;-75
2022/09/10 07:19:09;;;;;;;2.25;0.77;;;;;;;;;;5049108;28;20489;-74
2022/09/10 07:21:36;;;;;;;1.38;0.55;;;;;;;;;;5049141;28;20025;-74
2022/09/10 07:24:04;;;;;;;1.85;0.35;;;;;;;;;;5049580;28;20100;-74
2022/09/10 07:26:31;;;;;;;2.65;0.60;;;;;;;;;;5049643;28;20107;-75
2022/09/10 07:28:57;;;;;;;1.92;0.73;;;;;;;;;;5052930;28;20382;-75
2022/09/10 07:31:32;;;;;;;1.23;0.50;;;;;;;;;;5049642;28;20393;-75
2022/09/10 07:33:59;;;;;;;1.95;0.55;;;;;;;;;;5051162;28;20083;-75
2022/09/10 07:36:26;;;;;;;2.78;0.60;;;;;;;;;;5050876;28;20017;-74
2022/09/10 07:38:53;;;;;;;1.70;0.65;;;;;;;;;;5049794;28;20207;-75
2022/09/10 07:41:19;;;;;;;4.97;0.75;;;;;;;;;;5053845;28;20040;-74
2022/09/10 07:43:45;;;;;;;3.28;0.80;;;;;;;;;;5056017;28;20025;-74
2022/09/10 07:46:12;;;;;;;1.30;0.55;;;;;;;;;;5052205;28;20094;-74
2022/09/10 07:48:40;;;;;;;1.75;0.50;;;;;;;;;;5057980;28;20021;-74
2022/09/10 07:51:07;;;;;;;3.47;0.88;;;;;;;;;;5055009;28;20021;-73
2022/09/10 07:53:33;;;;;;;2.97;0.60;;;;;;;;;;5070083;28;20191;-73
2022/09/10 07:56:03;;;;;;;2.45;0.70;;;;;;;;;;5069150;28;20394;-74
2022/09/10 07:58:30;;;;;;;1.77;0.67;;;;;;;;;;5065863;28;20035;-74
2022/09/10 08:00:56;;;;;;;1.67;0.55;;;;;;;;;;5062737;28;20259;-73
2022/09/10 08:03:22;;;;;;;3.63;0.82;;;;;;;;;;5052653;28;20033;-73
2022/09/10 08:05:49;;;;;;;1.77;0.57;;;;;;;;;;5048662;28;20021;-73
2022/09/10 08:08:15;;;;;;;1.83;0.73;;;;;;;;;;5046956;28;20021;-74
2022/09/10 08:10:41;;;;;;;3.83;0.50;;;;;;;;;;5063559;28;20023;-73
2022/09/10 08:13:07;;;;;;;2.78;0.60;;;;;;;;;;5062108;28;20070;-74
2022/09/10 08:15:34;;;;;;;2.88;0.55;;;;;;;;;;5063396;28;20425;-73
2022/09/10 08:18:01;;;;;;;2.30;0.70;;;;;;;;;;5055132;28;20368;-73
2022/09/10 08:20:27;;;;;;;1.65;0.40;;;;;;;;;;5058946;28;20075;-73
2022/09/10 08:22:56;;;;;;;3.45;0.70;;;;;;;;;;5051138;28;20102;-73
2022/09/10 08:25:22;;;;;;;1.40;0.50;;;;;;;;;;5050430;28;20029;-73
2022/09/10 08:27:48;;;;;;;2.03;0.75;;;;;;;;;;5048530;28;20028;-73
2022/09/10 08:30:14;;;;;;;2.83;0.70;;;;;;;;;;5060020;28;20067;-73
2022/09/10 08:32:40;;;;;;;2.55;0.65;;;;;;;;;;5066994;28;20111;-74
2022/09/10 08:35:06;;;;;;;2.05;0.80;;;;;;;;;;5050105;28;20391;-73
2022/09/10 08:37:32;;;;;;;2.00;0.80;;;;;;;;;;5048934;28;20032;-73
2022/09/10 08:39:58;;;;;;;1.17;0.85;;;;;;;;;;5050057;28;20475;-74
2022/09/10 08:42:32;;;;;;;3.90;0.80;;;;;;;;;;5048789;28;20402;-74
2022/09/10 08:45:01;;;;;;;1.92;0.60;;;;;;;;;;5050095;28;20070;-73
2022/09/10 08:47:31;;;;;;;2.20;0.50;;;;;;;;;;5049448;28;20063;-73
2022/09/10 08:49:59;;;;;;;2.47;0.70;;;;;;;;;;5060141;28;20394;-74
2022/09/10 08:52:40;;;;;;;2.10;0.80;;;;;;;;;;5049907;28;20029;-73
2022/09/10 08:55:22;;;;;;;3.72;0.73;;;;;;;;;;5049184;28;20368;-74
2022/09/10 08:57:47;;;;;;;;;;;;;;;;;;5051866;28;20025;-74
2022/09/10 09:00:18;;;;;;;1.73;0.60;;;;;;;;;;5058715;28;20034;-74
2022/09/10 09:02:47;;;;;;;1.85;0.55;;;;;;;;;;5052426;28;20387;-74
2022/09/10 09:05:18;;;;;;;1.08;0.70;;;;;;;;;;5048520;28;20123;-74
2022/09/10 09:07:45;;;;;;;;;;;;;;;;;;5049659;28;20017;-74
2022/09/10 09:10:17;;;;;;;2.58;0.90;;;;;;;;;;5058984;28;19908;-74
2022/09/10 09:12:49;;;;;;;4.13;0.68;;;;;;;;;;5070328;28;20040;-74
2022/09/10 09:15:17;;;;;;;4.72;1.10;;;;;;;;;;5053272;28;20498;-73
2022/09/10 09:17:59;;;;;;;1.95;0.57;;;;;;;;;;5052514;28;20090;-73
2022/09/10 09:20:25;;;;;;;1.92;0.32;;;;;;;;;;5053452;28;20044;-73
2022/09/10 09:22:55;;;;;;;1.38;0.40;;;;;;;;;;5056408;28;20024;-73
2022/09/10 09:25:27;;;;;;;2.60;0.50;;;;;;;;;;5053017;28;20025;-73
2022/09/10 09:27:55;;;;;;;2.67;0.70;;;;;;;;;;5052363;28;20013;-74
2022/09/10 09:30:27;;;;;;;3.15;0.50;;;;;;;;;;5064174;28;20032;-74
2022/09/10 09:32:55;;;;;;;2.30;0.60;;;;;;;;;;5055172;28;20021;-73
2022/09/10 09:35:24;;;;;;;3.22;0.70;;;;;;;;;;5053273;28;20048;-74
2022/09/10 09:37:57;;;;;;;2.05;0.60;;;;;;;;;;5052841;28;20024;-74
2022/09/10 09:40:29;;;;;;;1.60;0.68;;;;;;;;;;5053134;28;20542;-73
2022/09/10 09:42:55;;;;;;;3.58;0.77;;;;;;;;;;5053138;28;20029;-73
2022/09/10 09:45:33;;;;;;;3.20;1.00;;;;;;;;;;5052908;28;20036;-74
2022/09/10 09:47:59;;;;;;;2.17;0.65;;;;;;;;;;5050734;28;20025;-74
2022/09/10 09:50:25;;;;;;;5.82;0.75;;;;;;;;;;5053007;28;20036;-73
2022/09/10 09:52:54;;;;;;;2.10;0.80;;;;;;;;;;5052855;28;20032;-74
2022/09/10 09:55:26;;;;;;;5.45;0.75;;;;;;;;;;5053377;28;20025;-73
2022/09/10 09:58:12;;;;;;;1.65;0.63;;;;;;;;;;5053586;28;20029;-74
2022/09/10 10:00:38;;;;;;;1.75;0.60;;;;;;;;;;5062605;28;20029;-74
2022/09/10 10:03:13;;;;;;;3.05;0.60;;;;;;;;;;5061216;28;20194;-75
2022/09/10 10:05:39;;;;;;;1.65;1.15;;;;;;;;;;5055977;28;20505;-74
2022/09/10 10:08:05;;;;;;;6.57;2.78;;;;;;;;;;5065605;28;20029;-75
2022/09/10 10:10:31;;;;;;;2.67;1.25;;;;;;;;;;5060767;28;20021;-76
2022/09/10 10:12:57;;;;;;;2.90;0.43;;;;;;;;;;5056844;28;20028;-75
2022/09/10 10:15:53;;;;;;;3.50;0.82;;;;;;;;;;5057852;28;20021;-75
2022/09/10 10:18:22;;;;;;;1.83;0.80;;;;;;;;;;5053609;28;20123;-76
2022/09/10 10:20:52;;;;;;;1.48;0.60;;;;;;;;;;5071377;28;20158;-74
2022/09/10 10:23:36;;;;;;;2.85;0.90;;;;;;;;;;5057028;28;20017;-74
2022/09/10 10:26:24;;;;;;;2.70;0.70;;;;;;;;;;5059246;28;20044;-73
2022/09/10 10:28:51;;;;;;;2.80;0.80;;;;;;;;;;5059637;28;20071;-73
2022/09/10 10:31:17;;;;;;;3.10;0.73;;;;;;;;;;5065740;28;20188;-73
2022/09/10 10:34:13;;;;;;;2.20;0.93;;;;;;;;;;5052369;28;20024;-74
2022/09/10 10:36:46;;;;;;;1.38;0.70;;;;;;;;;;5044527;28;20025;-73
2022/09/10 10:39:19;;;;;;;4.03;0.77;;;;;;;;;;5056619;28;20452;-74
2022/09/10 10:41:45;;;;;;;4.18;1.15;;;;;;;;;;5052049;28;20055;-74
2022/09/10 10:44:27;;;;;;;1.58;0.63;;;;;;;;;;5050375;28;20108;-75
2022/09/10 10:46:53;;;;;;;2.10;0.70;;;;;;;;;;5052028;28;20021;-74
2022/09/10 10:49:22;;;;;;;2.80;0.60;;;;;;;;;;5051180;28;20477;-74
2022/09/10 10:51:56;;;;;;;2.53;1.10;;;;;;;;;;5050300;28;20021;-74
2022/09/10 10:54:40;;;;;;;1.95;0.73;;;;;;;;;;5052736;28;20479;-73
2022/09/10 10:57:15;;;;;;;6.43;0.82;;;;;;;;;;5059637;28;20064;-74
2022/09/10 10:59:51;;;;;;;2.00;0.80;;;;;;;;;;5056628;28;20021;-75
2022/09/10 11:02:23;;;;;;;1.20;0.80;;;;;;;;;;5079303;22;20139;-75
2022/09/10 11:04:53;;;;;;;2.97;0.60;;;;;;;;;;5046793;28;20487;-75
2022/09/10 11:07:27;;;;;;;3.57;0.60;;;;;;;;;;5056798;28;20502;-75
2022/09/10 11:10:12;;;;;;;1.67;0.50;;;;;;;;;;5055461;28;20259;-73
2022/09/10 11:12:44;;;;;;;2.83;0.77;;;;;;;;;;5050948;28;20253;-75
2022/09/10 11:15:29;;;;;;;1.30;0.40;;;;;;;;;;5051800;28;20036;-76
2022/09/10 11:17:57;;;;;;;3.83;0.68;;;;;;;;;;5093902;22;20539;-75
2022/09/10 11:20:34;;;;;;;4.25;0.85;;;;;;;;;;5070987;28;20032;-75
2022/09/10 11:23:17;;;;;;;2.65;0.45;;;;;;;;;;5073200;28;20091;-74
2022/09/10 11:25:53;;;;;;;1.42;0.70;;;;;;;;;;5069126;28;20016;-72
2022/09/10 11:28:23;;;;;;;2.90;0.70;;;;;;;;;;5076891;28;20028;-76
2022/09/10 11:30:53;;;;;;;3.60;0.65;;;;;;;;;;5066494;28;20020;-75
2022/09/10 11:33:22;;;;;;;3.25;1.05;;;;;;;;;;5070220;28;20031;-73
2022/09/10 11:35:59;;;;;;;3.38;1.20;;;;;;;;;;5070934;28;20474;-72
2022/09/10 11:38:38;;;;;;;4.28;0.93;;;;;;;;;;5070738;28;20370;-73
2022/09/10 11:41:13;;;;;;;2.67;0.63;;;;;;;;;;5071151;28;20052;-72
2022/09/10 11:43:42;;;;;;;3.38;0.52;;;;;;;;;;5071066;28;20021;-73
2022/09/10 11:46:13;;;;;;;2.97;0.70;;;;;;;;;;5074385;28;20074;-75
2022/09/10 11:48:42;;;;;;;2.55;1.00;;;;;;;;;;5079812;28;20020;-75
2022/09/10 11:51:21;;;;;;;2.65;0.98;;;;;;;;;;5069599;28;20020;-73
2022/09/10 11:53:48;;;;;;;5.40;1.05;;;;;;;;;;5079664;28;20035;-76
2022/09/10 11:56:17;;;;;;;2.75;0.77;;;;;;;;;;5075360;28;20469;-75
2022/09/10 11:58:56;;;;;;;2.03;0.70;;;;;;;;;;5083946;28;20029;-76
2022/09/10 12:01:28;;;;;;;2.97;0.57;;;;;;;;;;5084619;28;20031;-74
2022/09/10 12:03:54;;;;;;;2.33;0.85;;;;;;;;;;5089429;28;20024;-76
2022/09/10 12:06:33;;;;;;;5.63;1.02;;;;;;;;;;5071713;28;20021;-74
2022/09/10 12:09:15;;;;;;;6.38;1.75;;;;;;;;;;5070000;28;20475;-72
2022/09/10 12:11:41;;;;;;;;;;;;;;;;;;5079625;28;20021;-72
2022/09/10 12:14:08;;;;;;;1.35;0.90;;;;;;;;;;5076794;28;19908;-74
2022/09/10 12:16:40;;;;;;;2.35;1.10;;;;;;;;;;5074591;28;20520;-75
2022/09/10 12:19:15;;;;;;;2.50;0.90;;;;;;;;;;5073417;28;20482;-75
2022/09/10 12:21:43;;;;;;;7.68;1.20;;;;;;;;;;5075129;28;20017;-75
2022/09/10 12:24:24;;;;;;;3.30;1.00;;;;;;;;;;5078232;28;20028;-74
2022/09/10 12:26:51;;;;;;;1.77;1.07;;;;;;;;;;5074131;28;20017;-72
2022/09/10 12:29:28;;;;;;;9.15;1.40;;;;;;;;;;5076492;28;20017;-72
2022/09/10 12:32:13;;;;;;;2.65;1.00;;;;;;;;;;5070115;28;20023;-75
2022/09/10 12:34:39;;;;;;;1.42;0.90;;;;;;;;;;5070357;28;20083;-70
2022/09/10 12:37:05;;;;;;;3.05;0.65;;;;;;;;;;5063178;28;20070;-77
2022/09/10 12:39:33;;;;;;;1.48;0.55;;;;;;;;;;5071903;28;20056;-76
2022/09/10 12:42:22;;;;;;;2.08;1.00;;;;;;;;;;5079647;28;20107;-72
2022/09/10 12:44:48;;;;;;;2.53;0.82;;;;;;;;;;5070357;28;20025;-74
2022/09/10 12:47:17;;;;;;;4.43;1.10;;;;;;;;;;5073148;28;20070;-74
2022/09/10 12:49:47;;;;;;;2.97;0.60;;;;;;;;;;5075421;28;20577;-73
2022/09/10 12:52:33;;;;;;;3.37;0.90;;;;;;;;;;5081711;28;20020;-74
2022/09/10 12:55:19;;;;;;;1.77;0.80;;;;;;;;;;5031018;28;20262;-74
2022/09/10 12:57:44;;;;;;;2.25;0.80;;;;;;;;;;5076110;28;20025;-74
2022/09/10 13:00:17;;;;;;;1.45;0.50;;;;;;;;;;5087555;28;20082;-75
2022/09/10 13:02:57;;;;;;;2.25;0.93;;;;;;;;;;5072872;28;20023;-74
2022/09/10 13:05:26;;;;;;;1.50;0.57;;;;;;;;;;5067133;28;20258;-73
2022/09/10 13:08:01;;;;;;;4.10;0.82;;;;;;;;;;5074918;28;20020;-72
2022/09/10 13:10:27;;;;;;;3.38;0.60;;;;;;;;;;5074076;28;20032;-75
2022/09/10 13:12:56;;;;;;;3.00;0.88;;;;;;;;;;5073524;28;20547;-75
2022/09/10 13:15:26;;;;;;;2.47;0.85;;;;;;;;;;5073383;28;20492;-74
2022/09/10 13:17:53;;;;;;;2.33;0.57;;;;;;;;;;5076396;28;20032;-74
2022/09/10 13:20:22;;;;;;;0.68;0.40;;;;;;;;;;5083341;28;20050;-74
2022/09/10 13:22:56;;;;;;;5.28;1.10;;;;;;;;;;5076884;28;20478;-72
2022/09/10 13:25:25;;;;;;;1.42;0.63;;;;;;;;;;5073864;28;20039;-74
2022/09/10 13:27:50;;;;;;;3.03;0.50;;;;;;;;;;5072875;28;20016;-73
2022/09/10 13:30:21;;;;;;;1.88;0.60;;;;;;;;;;5080078;28;20390;-75
2022/09/10 13:32:56;;;;;;;1.58;0.50;;;;;;;;;;5073523;28;20028;-76
2022/09/10 13:35:25;;;;;;;1.98;0.80;;;;;;;;;;5073446;28;20085;-76
2022/09/10 13:38:04;;;;;;;1.25;0.60;;;;;;;;;;5072258;28;20100;-74
2022/09/10 13:40:53;;;;;;;2.13;1.10;;;;;;;;;;5073399;28;20153;-75
2022/09/10 13:43:34;;;;;;;3.83;0.68;;;;;;;;;;5081048;28;20054;-75
2022/09/10 13:46:13;;;;;;;3.47;1.20;;;;;;;;;;5076792;28;20025;-75
2022/09/10 13:48:45;;;;;;;3.05;0.80;;;;;;;;;;5072323;28;20021;-75
2022/09/10 13:51:11;;;;;;;2.85;0.85;;;;;;;;;;5072582;28;20477;-74
2022/09/10 13:53:42;;;;;;;5.00;0.93;;;;;;;;;;5083083;28;20157;-74
2022/09/10 13:56:12;;;;;;;1.80;1.05;;;;;;;;;;5076016;28;20028;-75
2022/09/10 13:58:44;;;;;;;1.02;0.40;;;;;;;;;;5087169;28;20102;-75
2022/09/10 14:01:10;;;;;;;1.45;0.50;;;;;;;;;;5071865;28;20021;-76
2022/09/10 14:03:37;;;;;;;2.53;0.70;;;;;;;;;;5080400;28;20089;-75
2022/09/10 14:06:03;;;;;;;2.75;0.60;;;;;;;;;;5068063;28;20039;-75
2022/09/10 14:08:42;;;;;;;2.22;0.60;;;;;;;;;;5072048;28;20099;-75
2022/09/10 14:11:11;;;;;;;2.92;0.47;;;;;;;;;;5071768;28;20016;-74
2022/09/10 14:13:41;;;;;;;1.77;0.60;;;;;;;;;;5082524;28;20024;-71
2022/09/10 14:16:09;;;;;;;1.67;0.77;;;;;;;;;;5072259;28;20024;-76
2022/09/10 14:18:41;;;;;;;2.03;0.57;;;;;;;;;;5071517;28;20040;-75
2022/09/10 14:21:07;;;;;;;0.70;0.50;;;;;;;;;;5072127;28;20028;-71
2022/09/10 14:23:34;;;;;;;1.80;0.60;;;;;;;;;;5067329;28;20032;-75
2022/09/10 14:26:16;;;;;;;2.25;0.70;;;;;;;;;;5071388;28;20024;-75
2022/09/10 14:29:08;;;;;;;2.17;0.80;;;;;;;;;;5074945;28;20102;-74
2022/09/10 14:31:35;;;;;;;2.80;0.70;;;;;;;;;;5045096;28;20474;-73
2022/09/10 14:34:20;;;;;;;2.58;0.63;;;;;;;;;;5074113;28;20020;-75
2022/09/10 14:36:46;;;;;;;3.45;0.80;;;;;;;;;;5080406;28;20035;-74
2022/09/10 14:39:17;;;;;;;2.22;0.70;;;;;;;;;;5076207;28;20028;-72
2022/09/10 14:41:44;;;;;;;2.63;0.70;;;;;;;;;;5069529;28;20375;-75
2022/09/10 14:44:18;;;;;;;1.90;0.60;;;;;;;;;;5071677;28;20037;-72
2022/09/10 14:46:56;;;;;;;1.50;0.70;;;;;;;;;;5080864;28;20028;-77
2022/09/10 14:49:25;;;;;;;1.98;1.00;;;;;;;;;;5070360;28;20032;-78
2022/09/10 14:51:52;;;;;;;4.18;1.10;;;;;;;;;;5072084;28;20028;-78
2022/09/10 14:54:18;;;;;;;5.60;2.15;;;;;;;;;;5067537;28;20020;-74
2022/09/10 14:56:45;;;;;;;2.88;0.93;;;;;;;;;;5115376;22;20024;-76